createdAt,value
2017-08-22T00:02:19.391Z,2.43
2017-08-22T00:04:47.854Z,3.40
2017-08-22T00:07:16.423Z,3.03
2017-08-22T00:09:45.379Z,3.22
2017-08-22T00:12:13.933Z,3.10
2017-08-22T00:14:45.268Z,3.80
2017-08-22T00:17:13.783Z,3.27
2017-08-22T00:19:42.528Z,3.10
2017-08-22T00:22:11.043Z,3.60
2017-08-22T00:24:39.774Z,3.60
2017-08-22T00:27:12.773Z,3.30
2017-08-22T00:29:41.262Z,2.80
2017-08-22T00:32:10.052Z,3.00
2017-08-22T00:34:38.569Z,2.90
2017-08-22T00:37:07.095Z,3.27
2017-08-22T00:39:35.603Z,3.73
2017-08-22T00:42:04.094Z,3.08
2017-08-22T00:44:32.570Z,3.30
2017-08-22T00:47:01.150Z,3.40
2017-08-22T00:49:34.447Z,3.73
2017-08-22T00:52:02.611Z,2.73
2017-08-22T00:54:30.818Z,3.47
2017-08-22T00:56:59.584Z,4.68
2017-08-22T00:59:28.359Z,3.10
2017-08-22T01:01:56.881Z,4.67
2017-08-22T01:04:25.402Z,3.03
2017-08-22T01:06:53.934Z,2.90
2017-08-22T01:09:22.447Z,3.50
2017-08-22T01:11:50.887Z,3.93
2017-08-22T01:14:19.620Z,4.47
2017-08-22T01:16:48.396Z,3.65
2017-08-22T01:19:16.508Z,3.77
2017-08-22T01:21:44.554Z,4.28
2017-08-22T01:24:13.303Z,3.35
2017-08-22T01:26:41.426Z,3.30
2017-08-22T01:29:09.948Z,2.93
2017-08-22T01:31:38.762Z,2.62
2017-08-22T01:34:06.854Z,2.87
2017-08-22T01:36:35.371Z,3.28
2017-08-22T01:39:03.687Z,3.05
2017-08-22T01:41:31.709Z,2.70
2017-08-22T01:44:01.391Z,2.83
2017-08-22T01:46:29.984Z,3.17
2017-08-22T01:48:58.475Z,3.07
2017-08-22T01:51:27.211Z,3.42
2017-08-22T01:53:55.818Z,3.80
2017-08-22T01:56:24.298Z,3.17
2017-08-22T01:58:52.778Z,4.00
2017-08-22T02:01:21.505Z,3.53
2017-08-22T02:03:49.936Z,3.07
2017-08-22T02:06:18.453Z,3.73
2017-08-22T02:08:46.919Z,3.30
2017-08-22T02:11:15.628Z,3.95
2017-08-22T02:13:44.434Z,3.03
2017-08-22T02:16:12.901Z,3.50
2017-08-22T02:18:41.635Z,3.75
2017-08-22T02:21:10.386Z,2.92
2017-08-22T02:23:39.093Z,3.65
2017-08-22T02:26:07.814Z,3.10
2017-08-22T02:28:36.769Z,3.78
2017-08-22T02:31:07.755Z,4.00
2017-08-22T02:33:36.455Z,3.95
2017-08-22T02:36:05.210Z,3.40
2017-08-22T02:38:33.980Z,3.47
2017-08-22T02:41:02.758Z,3.80
2017-08-22T02:43:31.521Z,3.30
2017-08-22T02:46:00.291Z,3.62
2017-08-22T02:48:29.101Z,4.15
2017-08-22T02:50:57.842Z,4.28
2017-08-22T02:53:26.554Z,3.10
2017-08-22T02:55:56.497Z,3.15
2017-08-22T02:58:27.642Z,3.40
2017-08-22T03:00:56.383Z,3.40
2017-08-22T03:03:25.117Z,4.32
2017-08-22T03:05:53.885Z,4.10
2017-08-22T03:08:22.657Z,3.78
2017-08-22T03:10:51.401Z,3.90
2017-08-22T03:13:20.170Z,3.90
2017-08-22T03:15:48.964Z,4.40
2017-08-22T03:18:17.732Z,3.80
2017-08-22T03:20:46.464Z,3.40
2017-08-22T03:23:15.210Z,6.43
2017-08-22T03:25:43.939Z,3.25
2017-08-22T03:28:12.698Z,4.43
2017-08-22T03:30:42.454Z,3.87
2017-08-22T03:33:11.173Z,4.10
2017-08-22T03:35:39.903Z,4.18
2017-08-22T03:38:08.624Z,3.87
2017-08-22T03:40:37.384Z,4.22
2017-08-22T03:43:06.156Z,3.75
2017-08-22T03:45:34.848Z,4.15
2017-08-22T03:48:03.570Z,4.10
2017-08-22T03:50:32.324Z,4.10
2017-08-22T03:53:01.081Z,3.45
2017-08-22T03:55:29.804Z,5.72
2017-08-22T03:57:58.514Z,4.95
2017-08-22T04:00:27.225Z,5.07
2017-08-22T04:02:55.993Z,3.80
2017-08-22T04:05:24.734Z,4.18
2017-08-22T04:07:53.440Z,4.18
2017-08-22T04:10:22.238Z,4.53
2017-08-22T04:12:51.766Z,4.62
2017-08-22T04:15:20.619Z,4.12
2017-08-22T04:17:50.161Z,4.97
2017-08-22T04:20:18.874Z,5.37
2017-08-22T04:22:47.574Z,4.43
2017-08-22T04:25:16.297Z,6.45
2017-08-22T04:27:45.018Z,4.95
2017-08-22T04:30:13.723Z,5.10
2017-08-22T04:32:50.118Z,3.80
2017-08-22T04:35:18.846Z,4.55
2017-08-22T04:37:47.567Z,4.35
2017-08-22T04:40:16.298Z,4.53
2017-08-22T04:42:45.044Z,4.57
2017-08-22T04:45:14.454Z,5.30
2017-08-22T04:47:43.178Z,4.22
2017-08-22T04:50:12.998Z,4.50
2017-08-22T04:52:41.735Z,5.25
2017-08-22T04:55:10.436Z,3.92
2017-08-22T04:57:39.192Z,6.25
2017-08-22T05:00:08.669Z,3.95
2017-08-22T05:02:37.389Z,4.10
2017-08-22T05:05:05.450Z,3.47
2017-08-22T05:07:34.166Z,3.62
2017-08-22T05:10:02.878Z,3.90
2017-08-22T05:12:31.713Z,4.75
2017-08-22T05:15:01.730Z,5.12
2017-08-22T05:17:30.481Z,4.10
2017-08-22T05:19:59.251Z,4.35
2017-08-22T05:22:30.615Z,3.62
2017-08-22T05:24:59.366Z,4.47
2017-08-22T05:27:27.881Z,4.17
2017-08-22T05:29:56.619Z,3.58
2017-08-22T05:32:25.370Z,3.55
2017-08-22T05:34:53.893Z,3.67
2017-08-22T05:37:22.355Z,4.33
2017-08-22T05:39:50.809Z,3.63
2017-08-22T05:42:19.273Z,3.93
2017-08-22T05:44:48.494Z,3.43
2017-08-22T05:47:16.950Z,3.73
2017-08-22T05:49:45.496Z,4.00
2017-08-22T05:52:13.942Z,3.70
2017-08-22T05:54:42.461Z,4.77
2017-08-22T05:57:10.918Z,3.77
2017-08-22T05:59:39.392Z,3.80
2017-08-22T06:02:07.889Z,4.27
2017-08-22T06:04:36.371Z,4.40
2017-08-22T06:07:06.635Z,4.20
2017-08-22T06:09:35.195Z,3.73
2017-08-22T06:12:03.661Z,3.60
2017-08-22T06:14:32.236Z,4.50
2017-08-22T06:17:00.733Z,4.00
2017-08-22T06:19:29.203Z,3.40
2017-08-22T06:21:57.665Z,3.73
2017-08-22T06:24:26.215Z,3.60
2017-08-22T06:26:54.424Z,3.60
2017-08-22T06:29:22.921Z,4.63
2017-08-22T06:31:51.391Z,3.67
2017-08-22T06:34:19.853Z,3.80
2017-08-22T06:36:48.137Z,3.37
2017-08-22T06:39:16.698Z,4.40
2017-08-22T06:41:45.127Z,3.40
2017-08-22T06:44:13.570Z,3.53
2017-08-22T06:46:42.022Z,3.70
2017-08-22T06:49:10.493Z,4.10
2017-08-22T06:51:38.959Z,3.27
2017-08-22T06:54:07.426Z,3.10
2017-08-22T06:56:35.937Z,3.30
2017-08-22T06:59:04.223Z,3.27
2017-08-22T07:01:32.939Z,3.30
2017-08-22T07:04:01.481Z,2.97
2017-08-22T07:06:33.655Z,3.40
2017-08-22T07:09:02.153Z,3.00
2017-08-22T07:11:30.698Z,2.70
2017-08-22T07:13:59.162Z,3.40
2017-08-22T07:16:27.638Z,2.77
2017-08-22T07:18:56.913Z,3.40
2017-08-22T07:21:25.373Z,2.80
2017-08-22T07:23:53.811Z,3.40
2017-08-22T07:26:22.297Z,2.40
2017-08-22T07:28:50.754Z,2.60
2017-08-22T07:31:19.194Z,2.93
2017-08-22T07:33:47.672Z,2.57
2017-08-22T07:36:16.139Z,2.40
2017-08-22T07:38:44.591Z,3.37
2017-08-22T07:41:13.056Z,3.93
2017-08-22T07:43:41.491Z,3.00
2017-08-22T07:46:09.954Z,2.30
2017-08-22T07:48:38.432Z,2.80
2017-08-22T07:51:06.893Z,2.70
2017-08-22T07:53:35.356Z,2.70
2017-08-22T07:56:03.827Z,2.27
2017-08-22T07:58:32.280Z,2.60
2017-08-22T08:01:00.709Z,2.70
2017-08-22T08:03:28.969Z,2.17
2017-08-22T08:05:57.435Z,2.30
2017-08-22T08:08:25.864Z,1.83
2017-08-22T08:10:55.095Z,2.13
2017-08-22T08:13:23.568Z,1.63
2017-08-22T08:15:51.994Z,2.50
2017-08-22T08:18:20.463Z,1.97
2017-08-22T08:20:48.969Z,1.83
2017-08-22T08:23:17.419Z,2.70
2017-08-22T08:25:45.886Z,2.43
2017-08-22T08:28:14.341Z,1.73
2017-08-22T08:30:42.858Z,2.07
2017-08-22T08:33:11.323Z,2.73
2017-08-22T08:35:39.818Z,2.00
2017-08-22T08:38:08.306Z,2.10
2017-08-22T08:40:36.782Z,1.97
2017-08-22T08:43:05.252Z,1.83
2017-08-22T08:45:33.663Z,1.70
2017-08-22T08:48:02.093Z,2.50
2017-08-22T08:50:30.566Z,2.10
2017-08-22T08:52:59.028Z,1.43
2017-08-22T08:55:27.496Z,1.53
2017-08-22T08:57:56.016Z,1.63
2017-08-22T09:00:24.463Z,1.80
2017-08-22T09:02:52.915Z,1.50
2017-08-22T09:05:21.384Z,1.90
2017-08-22T09:07:50.398Z,1.73
2017-08-22T09:10:18.819Z,2.37
2017-08-22T09:12:47.278Z,1.60
2017-08-22T09:15:15.718Z,1.43
2017-08-22T09:17:44.174Z,2.60
2017-08-22T09:20:12.670Z,1.40
2017-08-22T09:22:41.116Z,1.80
2017-08-22T09:25:09.551Z,2.30
2017-08-22T09:27:38.815Z,1.40
2017-08-22T09:30:07.241Z,1.93
2017-08-22T09:32:35.661Z,1.73
2017-08-22T09:35:04.095Z,1.93
2017-08-22T09:37:32.838Z,1.80
2017-08-22T09:40:01.274Z,1.50
2017-08-22T09:42:29.753Z,2.00
2017-08-22T09:44:58.237Z,1.47
2017-08-22T09:47:26.670Z,2.33
2017-08-22T09:49:55.098Z,1.87
2017-08-22T09:52:23.557Z,1.60
2017-08-22T09:54:51.977Z,1.63
2017-08-22T09:57:20.449Z,1.10
2017-08-22T09:59:48.934Z,1.70
2017-08-22T10:02:17.374Z,1.60
2017-08-22T10:04:45.799Z,1.90
2017-08-22T10:07:14.210Z,1.30
2017-08-22T10:09:42.655Z,1.47
2017-08-22T10:12:11.072Z,1.70
2017-08-22T10:14:39.498Z,1.60
2017-08-22T10:17:07.917Z,1.80
2017-08-22T10:19:36.347Z,1.60
2017-08-22T10:22:04.782Z,1.77
2017-08-22T10:24:33.222Z,1.57
2017-08-22T10:27:01.655Z,2.47
2017-08-22T10:29:30.087Z,1.70
2017-08-22T10:31:58.489Z,1.70
2017-08-22T10:34:26.914Z,1.67
2017-08-22T10:36:55.353Z,1.37
2017-08-22T10:39:23.758Z,1.10
2017-08-22T10:41:52.171Z,1.43
2017-08-22T10:44:20.612Z,1.87
2017-08-22T10:46:49.154Z,1.50
2017-08-22T10:49:17.557Z,1.30
2017-08-22T10:51:46.013Z,1.40
2017-08-22T10:54:14.445Z,1.67
2017-08-22T10:56:42.886Z,1.70
2017-08-22T10:59:11.330Z,1.60
2017-08-22T11:01:39.870Z,1.13
2017-08-22T11:04:08.411Z,1.63
2017-08-22T11:06:36.867Z,1.33
2017-08-22T11:09:04.408Z,1.60
2017-08-22T11:11:32.841Z,1.87
2017-08-22T11:14:01.311Z,1.20
2017-08-22T11:16:29.713Z,1.53
2017-08-22T11:18:58.124Z,1.90
2017-08-22T11:21:26.619Z,1.80
2017-08-22T11:23:55.041Z,1.93
2017-08-22T11:26:23.498Z,1.80
2017-08-22T11:28:51.986Z,2.27
2017-08-22T11:31:20.390Z,2.10
2017-08-22T11:33:48.799Z,1.70
2017-08-22T11:36:17.221Z,1.80
2017-08-22T11:38:45.635Z,1.70
2017-08-22T11:41:14.050Z,2.23
2017-08-22T11:43:42.491Z,1.83
2017-08-22T11:46:10.927Z,1.50
2017-08-22T11:48:39.382Z,2.40
2017-08-22T11:51:07.800Z,1.70
2017-08-22T11:53:36.201Z,2.10
2017-08-22T11:56:04.612Z,2.10
2017-08-22T11:58:33.111Z,1.60
2017-08-22T12:01:01.513Z,2.20
2017-08-22T12:03:29.934Z,2.10
2017-08-22T12:05:58.437Z,1.70
2017-08-22T12:08:26.859Z,1.43
2017-08-22T12:10:55.286Z,2.23
2017-08-22T12:13:23.702Z,1.67
2017-08-22T12:15:52.114Z,2.70
2017-08-22T12:18:20.339Z,2.17
2017-08-22T12:20:48.594Z,2.27
2017-08-22T12:23:16.830Z,1.90
2017-08-22T12:25:45.248Z,2.00
2017-08-22T12:28:13.789Z,2.00
2017-08-22T12:30:42.199Z,2.03
2017-08-22T12:33:10.602Z,1.83
2017-08-22T12:35:39.058Z,1.60
2017-08-22T12:38:07.485Z,1.80
2017-08-22T12:40:38.482Z,2.20
2017-08-22T12:43:06.926Z,1.70
2017-08-22T12:45:34.994Z,2.27
2017-08-22T12:48:03.395Z,2.03
2017-08-22T12:50:31.838Z,2.17
2017-08-22T12:53:00.321Z,2.13
2017-08-22T12:55:28.768Z,2.07
2017-08-22T12:57:57.186Z,1.70
2017-08-22T13:00:25.619Z,1.83
2017-08-22T13:02:54.061Z,2.70
2017-08-22T13:05:22.473Z,2.23
2017-08-22T13:07:50.922Z,2.20
2017-08-22T13:10:19.357Z,3.07
2017-08-22T13:12:47.782Z,2.40
2017-08-22T13:15:16.250Z,2.03
2017-08-22T13:17:44.685Z,1.83
2017-08-22T13:20:13.122Z,2.17
2017-08-22T13:22:42.361Z,2.03
2017-08-22T13:25:10.841Z,2.27
2017-08-22T13:27:39.277Z,2.60
2017-08-22T13:30:07.713Z,2.43
2017-08-22T13:32:36.189Z,2.43
2017-08-22T13:35:04.630Z,2.20
2017-08-22T13:37:33.246Z,2.10
2017-08-22T13:40:01.746Z,2.13
2017-08-22T13:42:30.282Z,2.60
2017-08-22T13:44:59.519Z,2.80
2017-08-22T13:47:31.621Z,2.20
2017-08-22T13:50:00.060Z,2.43
2017-08-22T13:52:28.466Z,2.30
2017-08-22T13:54:56.893Z,2.27
2017-08-22T13:57:25.385Z,2.50
2017-08-22T13:59:53.835Z,2.50
2017-08-22T14:02:22.284Z,2.20
2017-08-22T14:04:50.768Z,2.57
2017-08-22T14:07:19.210Z,2.50
2017-08-22T14:09:47.617Z,2.47
2017-08-22T14:12:16.055Z,2.40
2017-08-22T14:14:44.462Z,2.17
2017-08-22T14:17:12.869Z,2.07
2017-08-22T14:19:41.353Z,1.90
2017-08-22T14:22:09.814Z,2.20
2017-08-22T14:24:38.211Z,2.70
2017-08-22T14:27:06.626Z,2.57
2017-08-22T14:29:35.043Z,1.97
2017-08-22T14:32:03.441Z,2.47
2017-08-22T14:34:31.878Z,2.87
2017-08-22T14:37:01.123Z,2.30
2017-08-22T14:39:29.556Z,2.50
2017-08-22T14:41:58.010Z,2.57
2017-08-22T14:44:26.541Z,2.30
2017-08-22T14:46:54.958Z,2.30
2017-08-22T14:49:23.390Z,2.43
2017-08-22T14:51:51.881Z,2.27
2017-08-22T14:54:20.295Z,2.43
2017-08-22T14:56:48.697Z,2.40
2017-08-22T14:59:17.139Z,2.00
2017-08-22T15:01:45.545Z,2.77
2017-08-22T15:04:13.966Z,3.20
2017-08-22T15:06:42.411Z,2.17
2017-08-22T15:09:10.821Z,2.20
2017-08-22T15:11:39.226Z,2.40
2017-08-22T15:14:08.431Z,2.50
2017-08-22T15:16:37.618Z,2.03
2017-08-22T15:19:06.805Z,2.23
2017-08-22T15:21:35.225Z,2.33
2017-08-22T15:24:03.630Z,2.90
2017-08-22T15:26:32.057Z,2.30
2017-08-22T15:29:00.494Z,1.90
2017-08-22T15:31:28.913Z,2.17
2017-08-22T15:33:57.341Z,2.30
2017-08-22T15:36:25.772Z,2.93
2017-08-22T15:38:54.230Z,2.43
2017-08-22T15:41:22.653Z,2.80
2017-08-22T15:43:51.067Z,2.50
2017-08-22T15:46:19.505Z,3.00
2017-08-22T15:48:47.924Z,2.20
2017-08-22T15:51:16.354Z,2.57
2017-08-22T15:53:44.786Z,4.87
2017-08-22T15:56:13.186Z,3.23
2017-08-22T15:58:41.599Z,3.17
2017-08-22T16:01:10.021Z,2.50
2017-08-22T16:03:38.426Z,2.60
2017-08-22T16:06:06.871Z,3.00
2017-08-22T16:08:35.305Z,2.57
2017-08-22T16:11:03.713Z,2.77
2017-08-22T16:13:32.150Z,3.23
2017-08-22T16:16:00.566Z,2.70
2017-08-22T16:18:28.985Z,3.03
2017-08-22T16:20:57.095Z,2.67
2017-08-22T16:23:25.517Z,2.70
2017-08-22T16:25:53.942Z,2.73
2017-08-22T16:28:22.397Z,2.83
2017-08-22T16:30:50.818Z,2.60
2017-08-22T16:33:19.237Z,2.90
2017-08-22T16:35:47.678Z,3.40
2017-08-22T16:38:16.101Z,2.83
2017-08-22T16:40:44.507Z,3.20
2017-08-22T16:43:12.954Z,3.27
2017-08-22T16:45:41.391Z,3.77
2017-08-22T16:48:09.837Z,3.23
2017-08-22T16:50:38.263Z,3.23
2017-08-22T16:53:06.694Z,3.00
2017-08-22T16:55:35.163Z,3.30
2017-08-22T16:58:04.374Z,3.17
2017-08-22T17:03:10.840Z,3.10
2017-08-22T17:05:40.474Z,3.73
2017-08-22T17:10:42.288Z,3.40
2017-08-22T17:13:10.751Z,3.50
2017-08-22T17:15:39.266Z,3.50
2017-08-22T17:18:08.965Z,3.70
2017-08-22T17:20:37.442Z,4.40
2017-08-22T17:23:05.951Z,5.10
2017-08-22T17:25:34.365Z,5.50
2017-08-22T17:28:03.483Z,4.60
2017-08-22T17:30:31.951Z,3.97
2017-08-22T17:33:00.471Z,4.83
2017-08-22T17:35:28.898Z,3.50
2017-08-22T17:37:57.421Z,3.20
2017-08-22T17:40:25.954Z,3.90
2017-08-22T17:42:54.407Z,3.80
2017-08-22T17:45:22.858Z,4.47
2017-08-22T17:47:51.388Z,3.60
2017-08-22T17:50:19.832Z,4.00
2017-08-22T17:52:48.247Z,3.90
2017-08-22T17:55:16.677Z,5.33
2017-08-22T17:57:45.103Z,5.03
2017-08-22T18:00:13.557Z,4.43
2017-08-22T18:02:42.029Z,4.10
2017-08-22T18:05:10.442Z,4.13
2017-08-22T18:07:38.843Z,5.23
2017-08-22T18:10:07.320Z,3.87
2017-08-22T18:12:35.724Z,4.63
2017-08-22T18:15:04.179Z,5.67
2017-08-22T18:17:32.686Z,4.53
2017-08-22T18:20:01.948Z,3.97
2017-08-22T18:22:30.366Z,4.83
2017-08-22T18:24:58.871Z,5.23
2017-08-22T18:27:27.387Z,4.90
2017-08-22T18:29:55.835Z,4.43
2017-08-22T18:32:24.330Z,5.03
2017-08-22T18:34:52.771Z,4.83
2017-08-22T18:37:21.189Z,4.40
2017-08-22T18:39:49.614Z,4.80
2017-08-22T18:42:18.013Z,4.90
2017-08-22T18:44:46.437Z,4.70
2017-08-22T18:47:14.845Z,4.83
2017-08-22T18:49:43.293Z,4.60
2017-08-22T18:52:11.729Z,4.07
2017-08-22T18:54:40.187Z,4.23
2017-08-22T18:57:08.962Z,4.40
2017-08-22T18:59:37.415Z,5.30
2017-08-22T19:02:05.869Z,4.07
2017-08-22T19:04:34.375Z,4.23
2017-08-22T19:07:02.773Z,4.40
2017-08-22T19:09:31.444Z,4.40
2017-08-22T19:12:00.085Z,3.43
2017-08-22T19:14:28.555Z,4.57
2017-08-22T19:16:58.416Z,4.53
2017-08-22T19:19:26.894Z,4.30
2017-08-22T19:21:55.448Z,4.90
2017-08-22T19:24:23.868Z,4.47
2017-08-22T19:26:52.279Z,4.80
2017-08-22T19:29:20.742Z,4.50
2017-08-22T19:31:49.433Z,4.70
2017-08-22T19:34:17.975Z,4.33
2017-08-22T19:36:47.744Z,5.00
2017-08-22T19:39:17.547Z,3.57
2017-08-22T19:41:46.054Z,4.07
2017-08-22T19:44:14.474Z,4.60
2017-08-22T19:46:43.182Z,4.30
2017-08-22T19:49:11.852Z,5.07
2017-08-22T19:51:40.282Z,5.00
2017-08-22T19:54:08.788Z,4.43
2017-08-22T19:56:37.502Z,4.97
2017-08-22T19:59:06.315Z,5.00
2017-08-22T20:01:35.518Z,4.63
2017-08-22T20:04:03.958Z,4.67
2017-08-22T20:06:32.410Z,5.00
2017-08-22T20:09:00.857Z,4.63
2017-08-22T20:11:29.364Z,4.30
2017-08-22T20:13:57.826Z,4.73
2017-08-22T20:16:26.266Z,4.70
2017-08-22T20:18:54.721Z,5.33
2017-08-22T20:21:23.174Z,5.07
2017-08-22T20:23:51.628Z,5.60
2017-08-22T20:26:20.082Z,5.30
2017-08-22T20:28:48.546Z,5.10
2017-08-22T20:31:16.982Z,4.63
2017-08-22T20:33:45.450Z,4.80
2017-08-22T20:36:13.913Z,5.57
2017-08-22T20:38:42.345Z,5.03
2017-08-22T20:41:10.754Z,6.17
2017-08-22T20:43:39.258Z,6.40
2017-08-22T20:46:07.666Z,5.57
2017-08-22T20:48:36.311Z,5.93
2017-08-22T20:51:04.969Z,5.20
2017-08-22T20:53:33.391Z,5.70
2017-08-22T20:56:01.864Z,5.57
2017-08-22T20:58:30.298Z,5.93
2017-08-22T21:00:58.744Z,6.23
2017-08-22T21:03:27.462Z,6.63
2017-08-22T21:05:55.894Z,5.77
2017-08-22T21:08:24.309Z,7.00
2017-08-22T21:10:52.726Z,5.73
2017-08-22T21:13:21.174Z,7.33
2017-08-22T21:15:49.621Z,6.67
2017-08-22T21:18:18.036Z,6.60
2017-08-22T21:20:46.486Z,6.03
2017-08-22T21:23:14.913Z,6.13
2017-08-22T21:25:43.328Z,5.97
2017-08-22T21:28:11.983Z,6.30
2017-08-22T21:30:40.465Z,5.87
2017-08-22T21:33:08.902Z,6.10
2017-08-22T21:35:37.614Z,6.13
2017-08-22T21:38:06.062Z,6.60
2017-08-22T21:40:34.483Z,6.70
2017-08-22T21:43:02.891Z,5.23
2017-08-22T21:45:31.580Z,6.77
2017-08-22T21:48:00.010Z,6.50
2017-08-22T21:50:28.654Z,7.03
2017-08-22T21:52:57.061Z,6.90
2017-08-22T21:55:25.565Z,6.27
2017-08-22T21:57:54.249Z,6.70
2017-08-22T22:00:22.682Z,7.10
2017-08-22T22:02:52.902Z,6.70
2017-08-22T22:05:22.908Z,7.50
2017-08-22T22:07:51.114Z,5.90
2017-08-22T22:10:19.627Z,5.73
2017-08-22T22:12:48.446Z,7.00
2017-08-22T22:15:16.907Z,6.33
2017-08-22T22:17:45.547Z,6.70
2017-08-22T22:20:13.998Z,6.60
2017-08-22T22:22:42.475Z,5.97
2017-08-22T22:25:10.963Z,6.40
2017-08-22T22:27:39.464Z,6.20
2017-08-22T22:30:07.972Z,6.17
2017-08-22T22:32:36.417Z,6.00
2017-08-22T22:35:04.896Z,5.93
2017-08-22T22:37:33.468Z,5.93
2017-08-22T22:40:01.957Z,5.60
2017-08-22T22:42:30.507Z,5.60
2017-08-22T22:44:59.177Z,6.53
2017-08-22T22:47:27.639Z,5.87
2017-08-22T22:49:56.184Z,5.17
2017-08-22T22:52:25.275Z,5.60
2017-08-22T22:54:53.787Z,6.13
2017-08-22T22:57:22.374Z,5.70
2017-08-22T22:59:50.842Z,5.50
2017-08-22T23:02:19.315Z,5.40
2017-08-22T23:04:48.014Z,5.73
2017-08-22T23:07:16.432Z,6.20
2017-08-22T23:09:45.098Z,6.10
2017-08-22T23:12:13.507Z,6.00
2017-08-22T23:14:41.924Z,6.40
2017-08-22T23:17:10.363Z,5.70
2017-08-22T23:19:39.073Z,5.03
2017-08-22T23:22:07.750Z,5.50
2017-08-22T23:24:36.435Z,6.20
2017-08-22T23:27:05.157Z,5.23
2017-08-22T23:29:33.843Z,5.47
2017-08-22T23:32:02.267Z,5.57
2017-08-22T23:34:30.914Z,5.60
2017-08-22T23:36:59.418Z,5.10
2017-08-22T23:39:27.817Z,6.30
2017-08-22T23:41:56.241Z,5.80
2017-08-22T23:44:24.943Z,5.43
2017-08-22T23:46:53.608Z,5.13
2017-08-22T23:49:22.025Z,5.53
2017-08-22T23:51:50.458Z,5.77
2017-08-22T23:54:18.894Z,5.40
2017-08-22T23:56:47.295Z,4.67
2017-08-22T23:59:15.727Z,6.30
